createdAt,value
2022-10-05T00:00:51.162Z,89.18
2022-10-05T00:05:53.691Z,90.03
2022-10-05T00:10:55.297Z,90.51
2022-10-05T00:16:16.803Z,89.45
2022-10-05T00:21:26.365Z,89.70
2022-10-05T00:26:33.419Z,89.68
2022-10-05T00:31:36.330Z,89.81
2022-10-05T00:36:39.213Z,89.52
2022-10-05T00:41:40.751Z,89.62
2022-10-05T00:46:57.300Z,90.16
2022-10-05T00:52:12.529Z,89.56
2022-10-05T00:57:23.921Z,89.67
2022-10-05T01:02:37.177Z,89.72
2022-10-05T01:07:50.617Z,89.20
2022-10-05T01:12:54.923Z,89.38
2022-10-05T01:18:27.235Z,88.74
2022-10-05T01:23:50.520Z,88.92
2022-10-05T01:29:16.666Z,88.55
2022-10-05T01:34:35.453Z,88.28
2022-10-05T01:39:51.643Z,88.29
2022-10-05T01:44:56.119Z,87.88
2022-10-05T01:50:04.696Z,87.51
2022-10-05T01:55:21.209Z,87.06
2022-10-05T02:00:22.859Z,87.52
2022-10-05T02:05:39.321Z,88.43
2022-10-05T02:11:03.229Z,88.44
2022-10-05T02:16:10.291Z,88.76
2022-10-05T02:21:12.680Z,88.62
2022-10-05T02:26:16.595Z,88.82
2022-10-05T02:31:30.052Z,88.36
2022-10-05T02:36:35.963Z,88.19
2022-10-05T02:41:44.799Z,88.04
2022-10-05T02:47:05.055Z,88.26
2022-10-05T02:52:47.276Z,88.52
2022-10-05T02:58:00.142Z,88.85
2022-10-05T03:03:16.467Z,89.46
2022-10-05T03:08:25.035Z,89.55
2022-10-05T03:13:51.949Z,90.19
2022-10-05T03:19:22.880Z,90.96
2022-10-05T03:24:58.429Z,90.96
2022-10-05T03:30:26.060Z,91.50
2022-10-05T03:35:35.991Z,91.68
2022-10-05T03:40:43.379Z,91.74
2022-10-05T03:46:06.327Z,92.13
2022-10-05T03:51:28.721Z,91.71
2022-10-05T03:56:54.583Z,91.72
2022-10-05T04:02:02.451Z,91.12
2022-10-05T04:07:06.507Z,90.33
2022-10-05T04:12:36.012Z,90.06
2022-10-05T04:17:44.878Z,89.80
2022-10-05T04:22:58.146Z,89.73
2022-10-05T04:28:20.026Z,90.00
2022-10-05T04:33:22.152Z,90.42
2022-10-05T04:38:29.530Z,91.05
2022-10-05T04:43:43.622Z,90.92
2022-10-05T04:48:51.385Z,91.29
2022-10-05T04:54:23.424Z,91.49
2022-10-05T04:59:42.885Z,91.53
2022-10-05T05:05:12.571Z,91.35
2022-10-05T05:10:40.515Z,91.16
2022-10-05T05:15:56.607Z,90.77
2022-10-05T05:21:16.149Z,91.10
2022-10-05T05:26:29.474Z,90.99
2022-10-05T05:32:01.271Z,91.19
2022-10-05T05:37:13.803Z,90.77
2022-10-05T05:42:57.363Z,90.90
2022-10-05T05:48:02.970Z,90.43
2022-10-05T05:53:23.630Z,90.42
2022-10-05T05:58:32.106Z,89.96
2022-10-05T06:04:27.526Z,89.49
2022-10-05T06:09:43.472Z,89.69
2022-10-05T06:14:51.062Z,89.61
2022-10-05T06:20:02.428Z,89.26
2022-10-05T06:25:15.642Z,88.30
2022-10-05T06:30:17.751Z,87.86
2022-10-05T06:35:21.916Z,87.68
2022-10-05T06:40:29.353Z,87.67
2022-10-05T06:45:59.898Z,87.47
2022-10-05T06:51:16.930Z,86.97
2022-10-05T06:56:36.425Z,87.16
2022-10-05T07:02:06.487Z,86.98
2022-10-05T07:07:41.286Z,86.26
2022-10-05T07:13:23.007Z,85.76
2022-10-05T07:18:53.644Z,85.66
2022-10-05T07:24:10.363Z,85.43
2022-10-05T07:29:24.457Z,85.46
2022-10-05T07:34:55.535Z,85.34
2022-10-05T07:40:10.254Z,85.22
2022-10-05T07:45:24.723Z,85.34
2022-10-05T07:50:43.114Z,85.00
2022-10-05T07:55:51.787Z,84.68
2022-10-05T08:01:14.336Z,84.30
2022-10-05T08:06:38.323Z,82.82
2022-10-05T08:12:03.919Z,82.96
2022-10-05T08:17:21.606Z,81.53
2022-10-05T08:22:31.679Z,80.66
2022-10-05T08:27:48.206Z,81.09
2022-10-05T08:33:15.365Z,80.22
2022-10-05T08:38:21.172Z,80.29
2022-10-05T08:43:50.370Z,77.48
2022-10-05T08:49:21.597Z,77.27
2022-10-05T08:54:32.244Z,75.95
2022-10-05T08:59:45.902Z,73.29
2022-10-05T09:05:05.769Z,75.14
2022-10-05T09:10:28.477Z,74.29
2022-10-05T09:15:48.698Z,73.56
2022-10-05T09:20:58.839Z,70.89
2022-10-05T09:26:09.322Z,71.92
2022-10-05T09:31:24.597Z,72.82
2022-10-05T09:36:48.076Z,71.11
2022-10-05T09:42:07.592Z,68.58
2022-10-05T09:47:30.762Z,70.13
2022-10-05T09:52:53.293Z,68.80
2022-10-05T09:58:14.363Z,69.36
2022-10-05T10:03:16.177Z,69.07
2022-10-05T10:08:43.472Z,68.64
2022-10-05T10:13:58.330Z,68.06
2022-10-05T10:19:06.959Z,65.93
2022-10-05T10:24:22.306Z,67.75
2022-10-05T10:29:42.542Z,66.53
2022-10-05T10:34:46.923Z,66.54
2022-10-05T10:40:02.990Z,61.78
2022-10-05T10:45:19.736Z,58.29
2022-10-05T10:50:39.709Z,61.06
2022-10-05T10:55:41.226Z,64.25
2022-10-05T11:00:45.481Z,62.19
2022-10-05T11:06:11.880Z,63.25
2022-10-05T11:11:22.603Z,59.00
2022-10-05T11:16:36.166Z,61.15
2022-10-05T11:21:59.244Z,62.52
2022-10-05T11:27:25.850Z,62.74
2022-10-05T11:32:48.971Z,60.98
2022-10-05T11:38:12.232Z,59.51
2022-10-05T11:43:32.854Z,59.53
2022-10-05T11:48:40.398Z,59.80
2022-10-05T11:54:06.204Z,58.98
2022-10-05T11:59:39.785Z,58.38
2022-10-05T12:05:06.055Z,58.60
2022-10-05T12:10:31.155Z,58.36
2022-10-05T12:15:48.723Z,58.02
2022-10-05T12:21:01.879Z,56.86
2022-10-05T12:26:15.468Z,56.35
2022-10-05T12:31:16.998Z,56.73
2022-10-05T12:36:46.230Z,55.19
2022-10-05T12:41:59.824Z,55.99
2022-10-05T12:47:17.146Z,55.89
2022-10-05T12:52:43.447Z,53.75
2022-10-05T12:57:44.984Z,54.74
2022-10-05T13:03:17.986Z,55.94
2022-10-05T13:08:53.883Z,55.89
2022-10-05T13:14:02.483Z,53.47
2022-10-05T13:19:35.614Z,54.36
2022-10-05T13:25:05.113Z,55.88
2022-10-05T13:30:13.006Z,52.89
2022-10-05T13:35:44.401Z,53.57
2022-10-05T13:40:55.788Z,50.78
2022-10-05T13:46:09.998Z,51.71
2022-10-05T13:51:22.329Z,53.02
2022-10-05T13:56:31.013Z,53.09
2022-10-05T14:01:43.265Z,52.55
2022-10-05T14:06:45.834Z,54.01
2022-10-05T14:12:02.576Z,54.51
2022-10-05T14:17:15.161Z,55.83
2022-10-05T14:22:16.687Z,56.29
2022-10-05T14:27:29.842Z,55.84
2022-10-05T14:32:43.395Z,57.20
2022-10-05T14:37:53.696Z,57.67
2022-10-05T14:42:56.283Z,57.68
2022-10-05T14:48:01.647Z,58.04
2022-10-05T14:53:03.157Z,58.63
2022-10-05T14:58:48.108Z,58.61
2022-10-05T15:04:17.520Z,59.21
2022-10-05T15:09:47.143Z,59.32
2022-10-05T15:15:03.316Z,59.58
2022-10-05T15:20:29.165Z,59.91
2022-10-05T15:25:48.988Z,60.87
2022-10-05T15:30:59.380Z,61.33
2022-10-05T15:36:06.692Z,61.50
2022-10-05T15:41:22.857Z,62.14
2022-10-05T15:46:35.618Z,62.29
2022-10-05T15:51:55.258Z,62.94
2022-10-05T15:57:08.263Z,62.82
2022-10-05T16:02:25.355Z,63.26
2022-10-05T16:07:54.175Z,63.63
2022-10-05T16:13:05.031Z,63.58
2022-10-05T16:18:35.872Z,64.81
2022-10-05T16:24:17.484Z,65.02
2022-10-05T16:30:00.586Z,65.63
2022-10-05T16:35:29.637Z,65.38
2022-10-05T16:40:46.360Z,65.69
2022-10-05T16:45:58.479Z,66.54
2022-10-05T16:51:20.264Z,66.80
2022-10-05T16:56:26.683Z,67.60
2022-10-05T17:01:56.553Z,67.32
2022-10-05T17:07:17.196Z,67.27
2022-10-05T17:12:45.512Z,67.50
2022-10-05T17:17:55.600Z,68.97
2022-10-05T17:23:18.363Z,69.13
2022-10-05T17:28:38.720Z,68.59
2022-10-05T17:33:59.074Z,68.59
2022-10-05T17:39:14.296Z,69.61
2022-10-05T17:44:24.957Z,70.71
2022-10-05T17:50:09.049Z,71.01
2022-10-05T17:55:27.351Z,70.15
2022-10-05T18:00:40.787Z,70.74
2022-10-05T18:05:42.390Z,71.68
2022-10-05T18:11:05.644Z,71.49
2022-10-05T18:16:10.489Z,72.02
2022-10-05T18:21:15.115Z,73.34
2022-10-05T18:26:43.598Z,73.25
2022-10-05T18:31:55.297Z,74.99
2022-10-05T18:37:48.272Z,74.31
2022-10-05T18:43:32.970Z,73.93
2022-10-05T18:49:05.175Z,74.01
2022-10-05T18:54:41.335Z,74.36
2022-10-05T19:00:00.948Z,73.98
2022-10-05T19:05:35.803Z,74.16
2022-10-05T19:10:46.094Z,74.52
2022-10-05T19:16:13.397Z,74.70
2022-10-05T19:21:33.117Z,75.32
2022-10-05T19:26:43.603Z,74.90
2022-10-05T19:32:15.538Z,74.86
2022-10-05T19:37:31.004Z,75.08
2022-10-05T19:42:58.446Z,75.44
2022-10-05T19:48:35.483Z,75.64
2022-10-05T19:53:38.535Z,75.80
2022-10-05T19:58:40.162Z,76.06
2022-10-05T20:03:47.762Z,76.43
2022-10-05T20:08:51.999Z,76.51
2022-10-05T20:13:53.499Z,76.73
2022-10-05T20:19:13.412Z,76.95
2022-10-05T20:24:18.621Z,77.19
2022-10-05T20:29:20.162Z,77.38
2022-10-05T20:34:22.876Z,77.52
2022-10-05T20:39:24.473Z,77.62
2022-10-05T20:44:27.114Z,77.74
2022-10-05T20:49:36.255Z,78.08
2022-10-05T20:54:39.282Z,78.34
2022-10-05T20:59:40.858Z,78.56
2022-10-05T21:04:47.494Z,78.52
2022-10-05T21:09:49.604Z,78.95
2022-10-05T21:14:52.737Z,79.21
2022-10-05T21:19:54.308Z,79.54
2022-10-05T21:24:55.926Z,79.60
2022-10-05T21:29:57.464Z,79.97
2022-10-05T21:34:59.077Z,80.19
2022-10-05T21:40:01.096Z,80.35
2022-10-05T21:45:02.690Z,80.74
2022-10-05T21:50:05.324Z,80.76
2022-10-05T21:55:07.352Z,80.91
2022-10-05T22:00:10.533Z,81.37
2022-10-05T22:05:12.128Z,81.45
2022-10-05T22:10:14.187Z,81.69
2022-10-05T22:15:16.151Z,81.98
2022-10-05T22:20:20.334Z,82.34
2022-10-05T22:25:22.660Z,82.66
2022-10-05T22:30:24.202Z,82.83
2022-10-05T22:35:25.810Z,82.99
2022-10-05T22:40:27.394Z,82.82
2022-10-05T22:45:32.389Z,82.58
2022-10-05T22:50:34.480Z,82.48
2022-10-05T22:55:36.122Z,82.40
2022-10-05T23:00:57.129Z,82.51
2022-10-05T23:06:03.597Z,82.86
2022-10-05T23:11:11.679Z,83.17
2022-10-05T23:16:15.560Z,83.10
2022-10-05T23:21:21.898Z,83.01
2022-10-05T23:26:25.553Z,82.85
2022-10-05T23:31:30.561Z,82.39
2022-10-05T23:36:32.431Z,82.35
2022-10-05T23:41:34.428Z,82.56
2022-10-05T23:46:35.992Z,82.20
2022-10-05T23:51:37.567Z,82.17
2022-10-05T23:56:39.126Z,81.98
